createdAt,value
2018-06-23T00:02:21.584Z,14.00
2018-06-23T00:04:50.206Z,13.86
2018-06-23T00:07:18.855Z,13.82
2018-06-23T00:09:47.535Z,13.84
2018-06-23T00:12:16.238Z,13.78
2018-06-23T00:14:44.907Z,13.90
2018-06-23T00:17:13.600Z,13.79
2018-06-23T00:19:42.310Z,13.82
2018-06-23T00:22:10.994Z,13.83
2018-06-23T00:24:39.685Z,13.84
2018-06-23T00:27:08.309Z,13.80
2018-06-23T00:29:36.958Z,13.80
2018-06-23T00:32:05.596Z,13.83
2018-06-23T00:34:34.227Z,13.88
2018-06-23T00:37:02.869Z,13.82
2018-06-23T00:39:31.519Z,13.82
2018-06-23T00:42:00.175Z,13.64
2018-06-23T00:44:28.862Z,13.68
2018-06-23T00:46:57.502Z,13.76
2018-06-23T00:49:26.188Z,13.65
2018-06-23T00:51:54.810Z,13.58
2018-06-23T00:54:23.434Z,13.52
2018-06-23T00:56:52.043Z,13.53
2018-06-23T00:59:32.132Z,13.60
2018-06-23T01:02:00.835Z,13.56
2018-06-23T01:04:29.488Z,13.55
2018-06-23T01:06:58.149Z,13.61
2018-06-23T01:09:26.980Z,13.60
2018-06-23T01:11:55.611Z,13.60
2018-06-23T01:14:24.258Z,13.64
2018-06-23T01:16:53.127Z,13.56
2018-06-23T01:19:21.979Z,13.50
2018-06-23T01:21:50.516Z,13.55
2018-06-23T01:24:19.254Z,13.63
2018-06-23T01:26:48.071Z,13.47
2018-06-23T01:29:16.745Z,13.45
2018-06-23T01:31:45.496Z,13.49
2018-06-23T01:34:14.169Z,13.36
2018-06-23T01:36:42.830Z,13.44
2018-06-23T01:39:12.680Z,13.46
2018-06-23T01:41:41.775Z,13.43
2018-06-23T01:44:10.424Z,13.51
2018-06-23T01:46:39.119Z,13.53
2018-06-23T01:49:07.765Z,13.47
2018-06-23T01:51:36.441Z,13.43
2018-06-23T01:54:05.387Z,13.45
2018-06-23T01:56:34.050Z,13.46
2018-06-23T01:59:02.756Z,13.37
2018-06-23T02:01:31.454Z,13.30
2018-06-23T02:04:00.088Z,13.38
2018-06-23T02:06:28.759Z,13.39
2018-06-23T02:08:58.248Z,13.38
2018-06-23T02:11:26.911Z,13.43
2018-06-23T02:14:01.312Z,13.32
2018-06-23T02:16:35.262Z,13.37
2018-06-23T02:19:09.345Z,13.46
2018-06-23T02:21:43.213Z,13.45
2018-06-23T02:24:17.536Z,13.47
2018-06-23T02:26:51.443Z,13.55
2018-06-23T02:29:25.565Z,13.62
2018-06-23T02:31:59.584Z,13.63
2018-06-23T02:34:33.542Z,13.51
2018-06-23T02:37:02.218Z,13.50
2018-06-23T02:39:30.920Z,13.55
2018-06-23T02:41:59.645Z,13.58
2018-06-23T02:44:28.344Z,13.51
2018-06-23T02:46:56.995Z,13.48
2018-06-23T02:49:25.657Z,13.53
2018-06-23T02:51:54.265Z,13.50
2018-06-23T02:54:22.951Z,13.51
2018-06-23T02:56:51.618Z,13.50
2018-06-23T02:59:20.600Z,13.56
2018-06-23T03:01:50.048Z,13.54
2018-06-23T03:04:19.169Z,13.49
2018-06-23T03:06:48.235Z,13.47
2018-06-23T03:09:16.906Z,13.45
2018-06-23T03:11:45.576Z,13.47
2018-06-23T03:14:14.269Z,13.48
2018-06-23T03:16:42.959Z,13.47
2018-06-23T03:19:11.615Z,13.41
2018-06-23T03:21:40.275Z,13.49
2018-06-23T03:24:09.008Z,13.44
2018-06-23T03:26:37.623Z,13.37
2018-06-23T03:29:06.490Z,13.43
2018-06-23T03:31:35.118Z,13.55
2018-06-23T03:34:03.789Z,13.47
2018-06-23T03:36:32.442Z,13.52
2018-06-23T03:39:01.094Z,13.45
2018-06-23T03:41:29.779Z,13.48
2018-06-23T03:43:58.465Z,13.48
2018-06-23T03:46:27.191Z,13.48
2018-06-23T03:48:55.838Z,13.53
2018-06-23T03:51:24.518Z,13.51
2018-06-23T03:53:53.171Z,13.50
2018-06-23T03:56:21.841Z,13.55
2018-06-23T03:58:50.485Z,13.48
2018-06-23T04:01:19.182Z,13.45
2018-06-23T04:03:47.822Z,13.39
2018-06-23T04:06:16.436Z,13.47
2018-06-23T04:08:45.132Z,13.47
2018-06-23T04:11:13.785Z,13.49
2018-06-23T04:13:42.430Z,13.48
2018-06-23T04:16:11.109Z,13.45
2018-06-23T04:18:43.995Z,13.56
2018-06-23T04:21:12.661Z,13.46
2018-06-23T04:23:41.350Z,13.47
2018-06-23T04:26:10.031Z,13.50
2018-06-23T04:28:38.656Z,13.58
2018-06-23T04:31:07.333Z,13.69
2018-06-23T04:33:35.990Z,13.66
2018-06-23T04:36:04.624Z,13.77
2018-06-23T04:38:33.279Z,13.77
2018-06-23T04:41:02.047Z,13.74
2018-06-23T04:43:30.708Z,13.65
2018-06-23T04:45:59.376Z,13.71
2018-06-23T04:48:27.998Z,13.81
2018-06-23T04:50:56.665Z,13.91
2018-06-23T04:53:25.421Z,13.90
2018-06-23T04:55:53.999Z,13.89
2018-06-23T04:58:22.631Z,13.91
2018-06-23T05:00:51.314Z,13.92
2018-06-23T05:03:19.963Z,13.98
2018-06-23T05:05:48.626Z,14.06
2018-06-23T05:08:17.279Z,14.11
2018-06-23T05:10:45.922Z,14.07
2018-06-23T05:13:14.619Z,14.13
2018-06-23T05:15:43.292Z,14.08
2018-06-23T05:18:11.948Z,14.24
2018-06-23T05:20:40.684Z,14.25
2018-06-23T05:23:09.319Z,14.23
2018-06-23T05:25:37.947Z,14.23
2018-06-23T05:28:06.588Z,14.37
2018-06-23T05:30:35.219Z,14.42
2018-06-23T05:33:03.902Z,14.43
2018-06-23T05:35:32.545Z,14.69
2018-06-23T05:38:01.482Z,14.65
2018-06-23T05:40:30.092Z,14.71
2018-06-23T05:42:58.737Z,14.74
2018-06-23T05:45:27.399Z,14.82
2018-06-23T05:47:56.062Z,14.59
2018-06-23T05:50:25.288Z,14.60
2018-06-23T05:52:53.889Z,14.50
2018-06-23T05:55:22.555Z,14.63
2018-06-23T05:57:51.218Z,14.54
2018-06-23T06:00:19.902Z,14.56
2018-06-23T06:02:48.587Z,14.58
2018-06-23T06:05:17.996Z,14.72
2018-06-23T06:07:46.671Z,14.59
2018-06-23T06:10:15.321Z,14.65
2018-06-23T06:12:44.042Z,14.80
2018-06-23T06:15:12.694Z,14.93
2018-06-23T06:17:41.632Z,14.95
2018-06-23T06:20:11.947Z,14.98
2018-06-23T06:22:42.919Z,15.02
2018-06-23T06:25:12.271Z,15.13
2018-06-23T06:27:40.898Z,15.17
2018-06-23T06:30:10.411Z,15.19
2018-06-23T06:32:39.098Z,15.24
2018-06-23T06:35:08.121Z,15.34
2018-06-23T06:37:36.756Z,15.17
2018-06-23T06:40:06.444Z,15.37
2018-06-23T06:42:35.238Z,15.46
2018-06-23T06:45:04.190Z,15.52
2018-06-23T06:47:32.824Z,15.53
2018-06-23T06:50:01.711Z,15.23
2018-06-23T06:52:30.378Z,15.10
2018-06-23T06:54:59.071Z,15.10
2018-06-23T06:57:27.827Z,15.14
2018-06-23T06:59:56.667Z,15.17
2018-06-23T07:02:25.344Z,15.12
2018-06-23T07:04:54.501Z,15.04
2018-06-23T07:07:23.156Z,14.83
2018-06-23T07:09:51.826Z,15.07
2018-06-23T07:12:20.528Z,15.02
2018-06-23T07:14:49.201Z,15.41
2018-06-23T07:17:17.906Z,15.66
2018-06-23T07:19:46.557Z,15.85
2018-06-23T07:22:15.340Z,15.98
2018-06-23T07:24:44.007Z,16.33
2018-06-23T07:27:12.710Z,16.66
2018-06-23T07:29:41.518Z,16.47
2018-06-23T07:32:10.359Z,15.92
2018-06-23T07:34:39.075Z,16.64
2018-06-23T07:37:08.455Z,16.39
2018-06-23T07:39:37.232Z,16.48
2018-06-23T07:42:05.862Z,16.14
2018-06-23T07:44:34.528Z,16.50
2018-06-23T07:47:03.195Z,16.00
2018-06-23T07:49:31.837Z,15.97
2018-06-23T07:52:00.650Z,16.21
2018-06-23T07:54:29.337Z,16.98
2018-06-23T07:56:57.995Z,17.07
2018-06-23T07:59:26.657Z,16.50
2018-06-23T08:01:56.684Z,16.02
2018-06-23T08:04:25.408Z,15.95
2018-06-23T08:06:54.062Z,16.04
2018-06-23T08:09:22.740Z,16.05
2018-06-23T08:11:51.434Z,15.84
2018-06-23T08:14:20.107Z,16.00
2018-06-23T08:16:48.956Z,15.65
2018-06-23T08:19:17.669Z,15.60
2018-06-23T08:21:46.338Z,15.75
2018-06-23T08:24:15.049Z,15.83
2018-06-23T08:26:43.881Z,15.55
2018-06-23T08:29:12.479Z,15.65
2018-06-23T08:31:41.129Z,15.83
2018-06-23T08:34:09.827Z,15.65
2018-06-23T08:36:38.540Z,15.89
2018-06-23T08:39:07.909Z,16.14
2018-06-23T08:41:36.619Z,16.06
2018-06-23T08:44:06.319Z,15.97
2018-06-23T08:46:34.961Z,15.83
2018-06-23T08:49:03.621Z,15.99
2018-06-23T08:51:32.607Z,15.99
2018-06-23T08:54:01.914Z,16.15
2018-06-23T08:56:30.767Z,16.36
2018-06-23T08:58:59.410Z,16.32
2018-06-23T09:01:28.171Z,16.42
2018-06-23T09:03:56.791Z,16.71
2018-06-23T09:06:25.862Z,17.09
2018-06-23T09:08:55.236Z,16.96
2018-06-23T09:11:23.915Z,16.67
2018-06-23T09:13:52.725Z,16.58
2018-06-23T09:16:21.384Z,16.79
2018-06-23T09:18:50.111Z,17.22
2018-06-23T09:21:18.784Z,17.47
2018-06-23T09:23:47.467Z,17.32
2018-06-23T09:26:16.122Z,17.22
2018-06-23T09:28:44.793Z,17.24
2018-06-23T09:31:13.493Z,17.47
2018-06-23T09:33:42.165Z,17.89
2018-06-23T09:36:10.875Z,18.14
2018-06-23T09:38:39.511Z,18.63
2018-06-23T09:41:08.155Z,18.92
2018-06-23T09:43:36.783Z,18.92
2018-06-23T09:46:05.932Z,19.51
2018-06-23T09:48:34.564Z,19.36
2018-06-23T09:51:03.177Z,19.09
2018-06-23T09:53:32.270Z,19.39
2018-06-23T09:56:00.952Z,19.27
2018-06-23T09:58:30.337Z,18.63
2018-06-23T10:00:59.314Z,18.07
2018-06-23T10:03:28.023Z,18.04
2018-06-23T10:05:56.779Z,17.53
2018-06-23T10:08:25.419Z,17.80
2018-06-23T10:10:54.093Z,18.02
2018-06-23T10:13:22.740Z,18.06
2018-06-23T10:15:51.419Z,17.94
2018-06-23T10:18:20.082Z,18.23
2018-06-23T10:20:48.771Z,18.46
2018-06-23T10:23:17.407Z,18.44
2018-06-23T10:25:46.104Z,17.99
2018-06-23T10:28:14.794Z,17.66
2018-06-23T10:30:43.427Z,17.51
2018-06-23T10:33:12.095Z,17.85
2018-06-23T10:35:40.781Z,18.15
2018-06-23T10:38:09.474Z,18.34
2018-06-23T10:40:38.104Z,18.06
2018-06-23T10:43:06.776Z,17.45
2018-06-23T10:45:35.446Z,17.94
2018-06-23T10:48:04.087Z,18.74
2018-06-23T10:50:35.125Z,19.02
2018-06-23T10:53:05.142Z,19.01
2018-06-23T10:55:35.365Z,19.10
2018-06-23T10:58:05.070Z,18.88
2018-06-23T11:00:34.762Z,18.79
2018-06-23T11:03:04.783Z,18.34
2018-06-23T11:05:35.128Z,17.92
2018-06-23T11:08:05.944Z,18.15
2018-06-23T11:10:36.288Z,18.20
2018-06-23T11:13:06.925Z,18.22
2018-06-23T11:15:37.450Z,17.70
2018-06-23T11:18:08.184Z,17.67
2018-06-23T11:20:39.432Z,17.84
2018-06-23T11:23:09.858Z,17.72
2018-06-23T11:25:54.927Z,17.85
2018-06-23T11:28:25.563Z,17.79
2018-06-23T11:30:54.324Z,17.79
2018-06-23T11:33:23.102Z,17.55
2018-06-23T11:35:51.751Z,17.81
2018-06-23T11:38:20.404Z,18.11
2018-06-23T11:40:49.080Z,17.70
2018-06-23T11:43:17.743Z,17.33
2018-06-23T11:45:46.390Z,17.49
2018-06-23T11:48:15.056Z,17.46
2018-06-23T11:50:43.695Z,17.43
2018-06-23T11:53:12.457Z,17.01
2018-06-23T11:55:41.062Z,16.93
2018-06-23T11:58:09.738Z,16.95
2018-06-23T12:00:38.404Z,17.15
2018-06-23T12:03:07.142Z,17.55
2018-06-23T12:05:35.704Z,17.96
2018-06-23T12:08:04.707Z,17.79
2018-06-23T12:10:33.353Z,17.56
2018-06-23T12:13:02.057Z,17.45
2018-06-23T12:15:30.691Z,17.46
2018-06-23T12:17:59.348Z,17.56
2018-06-23T12:20:27.978Z,17.34
2018-06-23T12:22:56.598Z,17.50
2018-06-23T12:25:26.065Z,17.93
2018-06-23T12:27:54.682Z,18.11
2018-06-23T12:30:23.395Z,18.07
2018-06-23T12:32:51.984Z,17.79
2018-06-23T12:35:20.679Z,18.07
2018-06-23T12:37:49.311Z,18.39
2018-06-23T12:40:18.750Z,18.22
2018-06-23T12:42:47.479Z,18.36
2018-06-23T12:45:16.062Z,18.37
2018-06-23T12:47:44.728Z,18.35
2018-06-23T12:50:13.358Z,18.42
2018-06-23T12:52:41.992Z,18.34
2018-06-23T12:55:10.630Z,18.81
2018-06-23T12:57:39.281Z,19.10
2018-06-23T13:00:08.381Z,19.03
2018-06-23T13:02:37.215Z,19.16
2018-06-23T13:05:06.375Z,18.62
2018-06-23T13:07:35.063Z,18.23
2018-06-23T13:10:03.772Z,18.83
2018-06-23T13:12:32.419Z,18.40
2018-06-23T13:15:01.079Z,18.53
2018-06-23T13:17:29.705Z,18.81
2018-06-23T13:19:58.335Z,18.74
2018-06-23T13:22:27.041Z,18.64
2018-06-23T13:24:55.627Z,18.48
2018-06-23T13:27:24.295Z,18.61
2018-06-23T13:29:52.931Z,18.91
2018-06-23T13:32:21.607Z,19.06
2018-06-23T13:34:50.197Z,19.14
2018-06-23T13:37:18.859Z,19.18
2018-06-23T13:39:47.526Z,19.31
2018-06-23T13:42:16.179Z,19.06
2018-06-23T13:44:44.821Z,19.40
2018-06-23T13:47:13.526Z,19.27
2018-06-23T13:49:42.110Z,19.02
2018-06-23T13:52:10.755Z,19.09
2018-06-23T13:54:39.374Z,19.09
2018-06-23T13:57:08.080Z,18.68
2018-06-23T13:59:36.736Z,18.81
2018-06-23T14:02:05.616Z,19.16
2018-06-23T14:04:34.282Z,18.93
2018-06-23T14:07:02.933Z,19.09
2018-06-23T14:09:31.596Z,19.14
2018-06-23T14:12:00.239Z,18.94
2018-06-23T14:14:28.884Z,18.25
2018-06-23T14:16:57.535Z,18.06
2018-06-23T14:19:26.169Z,18.23
2018-06-23T14:21:54.777Z,18.38
2018-06-23T14:24:23.442Z,18.53
2018-06-23T14:26:52.095Z,18.42
2018-06-23T14:29:20.758Z,18.30
2018-06-23T14:31:49.508Z,18.05
2018-06-23T14:34:18.001Z,18.02
2018-06-23T14:36:46.691Z,17.95
2018-06-23T14:39:15.432Z,17.72
2018-06-23T14:41:44.072Z,17.72
2018-06-23T14:44:12.792Z,18.07
2018-06-23T14:46:41.435Z,18.38
2018-06-23T14:49:10.286Z,17.93
2018-06-23T14:51:38.858Z,17.92
2018-06-23T14:54:07.563Z,17.85
2018-06-23T14:56:36.181Z,17.83
2018-06-23T14:59:04.839Z,17.85
2018-06-23T15:01:33.611Z,18.00
2018-06-23T15:04:02.246Z,17.82
2018-06-23T15:06:30.875Z,17.75
2018-06-23T15:09:11.011Z,17.62
2018-06-23T15:11:51.207Z,17.65
2018-06-23T15:14:19.850Z,17.52
2018-06-23T15:16:48.459Z,17.80
2018-06-23T15:19:17.196Z,17.66
2018-06-23T15:21:45.855Z,17.44
2018-06-23T15:24:14.483Z,17.45
2018-06-23T15:26:43.083Z,17.21
2018-06-23T15:29:11.741Z,17.19
2018-06-23T15:31:40.392Z,17.15
2018-06-23T15:34:09.042Z,17.06
2018-06-23T15:36:37.713Z,17.05
2018-06-23T15:39:07.988Z,16.98
2018-06-23T15:41:36.639Z,17.11
2018-06-23T15:44:05.360Z,17.03
2018-06-23T15:46:34.329Z,17.16
2018-06-23T15:49:03.016Z,17.03
2018-06-23T15:51:31.766Z,17.17
2018-06-23T15:54:00.502Z,17.22
2018-06-23T15:56:29.083Z,17.23
2018-06-23T15:58:57.753Z,17.11
2018-06-23T16:01:26.421Z,17.16
2018-06-23T16:03:55.365Z,16.99
2018-06-23T16:06:23.980Z,17.14
2018-06-23T16:08:52.899Z,16.96
2018-06-23T16:11:22.098Z,17.10
2018-06-23T16:13:50.919Z,16.77
2018-06-23T16:16:19.706Z,16.69
2018-06-23T16:18:48.378Z,16.81
2018-06-23T16:21:17.199Z,16.79
2018-06-23T16:23:45.888Z,16.78
2018-06-23T16:26:14.883Z,16.77
2018-06-23T16:28:43.118Z,16.82
2018-06-23T16:31:11.876Z,16.75
2018-06-23T16:33:40.457Z,16.66
2018-06-23T16:36:09.079Z,16.62
2018-06-23T16:38:37.720Z,16.67
2018-06-23T16:41:06.398Z,16.76
2018-06-23T16:43:35.180Z,16.80
2018-06-23T16:46:03.842Z,16.71
2018-06-23T16:48:32.450Z,16.64
2018-06-23T16:51:01.126Z,16.75
2018-06-23T16:53:29.731Z,16.67
2018-06-23T16:55:58.370Z,16.64
2018-06-23T16:58:27.782Z,16.63
2018-06-23T17:00:56.460Z,16.75
2018-06-23T17:03:25.136Z,16.64
2018-06-23T17:05:53.764Z,16.70
2018-06-23T17:08:22.375Z,16.64
2018-06-23T17:10:51.046Z,16.71
2018-06-23T17:13:19.712Z,16.77
2018-06-23T17:15:48.567Z,16.66
2018-06-23T17:18:17.260Z,16.65
2018-06-23T17:20:46.112Z,16.71
2018-06-23T17:23:14.830Z,16.48
2018-06-23T17:25:43.593Z,16.45
2018-06-23T17:28:12.283Z,16.42
2018-06-23T17:30:41.102Z,16.50
2018-06-23T17:33:10.556Z,16.49
2018-06-23T17:35:39.345Z,16.55
2018-06-23T17:38:08.095Z,16.58
2018-06-23T17:40:36.872Z,16.64
2018-06-23T17:43:05.728Z,16.71
2018-06-23T17:45:34.437Z,16.62
2018-06-23T17:48:03.128Z,16.62
2018-06-23T17:50:31.809Z,16.48
2018-06-23T17:53:00.561Z,16.51
2018-06-23T17:55:29.206Z,16.66
2018-06-23T17:57:58.091Z,16.61
2018-06-23T18:00:26.537Z,16.51
2018-06-23T18:02:55.211Z,16.58
2018-06-23T18:05:23.845Z,16.52
2018-06-23T18:07:52.492Z,16.54
2018-06-23T18:10:21.171Z,16.52
2018-06-23T18:12:49.812Z,16.55
2018-06-23T18:15:18.420Z,16.45
2018-06-23T18:17:47.075Z,16.52
2018-06-23T18:20:15.694Z,16.52
2018-06-23T18:22:44.310Z,16.55
2018-06-23T18:25:13.001Z,16.57
2018-06-23T18:27:41.731Z,16.56
2018-06-23T18:30:10.386Z,16.59
2018-06-23T18:32:39.067Z,16.51
2018-06-23T18:35:07.776Z,16.51
2018-06-23T18:37:36.430Z,16.80
2018-06-23T18:40:05.341Z,16.77
2018-06-23T18:42:34.047Z,16.75
2018-06-23T18:45:02.683Z,16.65
2018-06-23T18:47:31.442Z,16.60
2018-06-23T18:50:00.121Z,16.57
2018-06-23T18:52:28.782Z,16.55
2018-06-23T18:54:57.432Z,16.54
2018-06-23T18:57:26.238Z,16.54
2018-06-23T18:59:54.919Z,16.54
2018-06-23T19:02:23.607Z,16.52
2018-06-23T19:04:52.294Z,16.51
2018-06-23T19:07:20.923Z,16.43
2018-06-23T19:09:49.574Z,16.72
2018-06-23T19:12:18.237Z,16.86
2018-06-23T19:14:46.895Z,16.99
2018-06-23T19:17:15.529Z,17.18
2018-06-23T19:19:44.216Z,16.90
2018-06-23T19:22:12.843Z,17.03
2018-06-23T19:24:41.572Z,17.02
2018-06-23T19:27:10.229Z,17.09
2018-06-23T19:29:38.845Z,17.06
2018-06-23T19:32:07.515Z,17.05
2018-06-23T19:34:36.139Z,17.05
2018-06-23T19:37:04.790Z,17.00
2018-06-23T19:39:33.489Z,16.96
2018-06-23T19:42:02.176Z,17.00
2018-06-23T19:44:30.851Z,17.01
2018-06-23T19:46:59.557Z,16.98
2018-06-23T19:49:28.233Z,16.99
2018-06-23T19:51:56.892Z,16.63
2018-06-23T19:54:26.303Z,16.22
2018-06-23T19:56:55.017Z,16.17
2018-06-23T19:59:23.688Z,16.17
2018-06-23T20:01:53.099Z,16.04
2018-06-23T20:04:21.845Z,15.99
2018-06-23T20:06:50.423Z,16.07
2018-06-23T20:09:19.093Z,15.93
2018-06-23T20:11:47.743Z,15.92
2018-06-23T20:14:16.377Z,15.97
2018-06-23T20:16:45.026Z,15.93
2018-06-23T20:19:13.669Z,15.98
2018-06-23T20:21:42.307Z,15.88
2018-06-23T20:24:10.978Z,16.00
2018-06-23T20:26:39.619Z,15.89
2018-06-23T20:29:08.270Z,15.93
2018-06-23T20:31:38.298Z,15.86
2018-06-23T20:34:06.911Z,16.02
2018-06-23T20:36:35.636Z,15.95
2018-06-23T20:39:06.039Z,15.92
2018-06-23T20:41:34.775Z,15.93
2018-06-23T20:44:03.392Z,15.73
2018-06-23T20:46:32.030Z,15.70
2018-06-23T20:49:00.740Z,15.70
2018-06-23T20:51:29.399Z,15.72
2018-06-23T20:53:58.063Z,15.78
2018-06-23T20:56:26.702Z,15.75
2018-06-23T20:58:55.378Z,15.83
2018-06-23T21:01:24.048Z,15.82
2018-06-23T21:03:52.773Z,15.83
2018-06-23T21:06:21.417Z,15.75
2018-06-23T21:08:50.035Z,15.70
2018-06-23T21:11:18.703Z,15.68
2018-06-23T21:13:47.428Z,15.75
2018-06-23T21:16:16.020Z,15.72
2018-06-23T21:18:45.099Z,15.73
2018-06-23T21:21:13.791Z,15.74
2018-06-23T21:23:42.443Z,15.73
2018-06-23T21:26:11.181Z,15.73
2018-06-23T21:28:39.821Z,15.89
2018-06-23T21:31:08.542Z,15.78
2018-06-23T21:33:37.176Z,15.69
2018-06-23T21:36:05.991Z,15.66
2018-06-23T21:38:34.679Z,15.70
2018-06-23T21:41:03.362Z,15.65
2018-06-23T21:43:32.040Z,15.74
2018-06-23T21:46:00.728Z,15.67
2018-06-23T21:48:29.406Z,15.58
2018-06-23T21:50:58.347Z,15.58
2018-06-23T21:53:27.044Z,15.65
2018-06-23T21:55:55.690Z,15.69
2018-06-23T21:58:24.372Z,15.58
2018-06-23T22:00:53.271Z,15.62
2018-06-23T22:03:26.527Z,15.59
2018-06-23T22:05:55.195Z,15.56
2018-06-23T22:08:23.848Z,15.67
2018-06-23T22:10:52.487Z,15.53
2018-06-23T22:13:21.180Z,15.55
2018-06-23T22:15:49.836Z,15.56
2018-06-23T22:18:18.487Z,15.58
2018-06-23T22:20:47.122Z,15.62
2018-06-23T22:23:15.779Z,15.52
2018-06-23T22:25:44.498Z,15.44
2018-06-23T22:28:13.164Z,15.40
2018-06-23T22:30:41.830Z,15.36
2018-06-23T22:33:10.484Z,15.33
2018-06-23T22:35:39.147Z,15.41
2018-06-23T22:38:08.215Z,15.39
2018-06-23T22:40:36.862Z,15.31
2018-06-23T22:43:05.526Z,15.23
2018-06-23T22:45:34.156Z,15.34
2018-06-23T22:48:02.844Z,15.32
2018-06-23T22:50:31.655Z,15.28
2018-06-23T22:53:00.254Z,15.32
2018-06-23T22:55:28.909Z,15.27
2018-06-23T22:57:57.544Z,15.28
2018-06-23T23:00:28.162Z,15.28
2018-06-23T23:02:56.879Z,15.25
2018-06-23T23:05:25.583Z,15.34
2018-06-23T23:07:54.288Z,15.34
2018-06-23T23:10:22.940Z,15.30
2018-06-23T23:12:51.625Z,15.28
2018-06-23T23:15:20.278Z,15.32
2018-06-23T23:17:48.949Z,15.29
2018-06-23T23:20:17.558Z,15.31
2018-06-23T23:22:46.232Z,15.34
2018-06-23T23:25:14.875Z,15.32
2018-06-23T23:27:43.572Z,15.30
2018-06-23T23:30:12.256Z,15.25
2018-06-23T23:32:40.952Z,15.30
2018-06-23T23:35:09.641Z,15.32
2018-06-23T23:37:38.347Z,15.25
2018-06-23T23:40:07.033Z,15.26
2018-06-23T23:42:35.694Z,15.28
2018-06-23T23:45:04.588Z,15.24
2018-06-23T23:47:34.316Z,15.24
2018-06-23T23:50:03.667Z,15.18
2018-06-23T23:52:33.052Z,15.15
2018-06-23T23:55:01.723Z,15.09
2018-06-23T23:57:31.043Z,15.00
2018-06-23T23:59:59.767Z,15.00
